Time;durP1;ratioP1;P1;durP2;ratioP2;P2;SDS_P1;SDS_P2;PMS_P1;PMS_P2;Temp;Humidity;BMP_temperature;BMP_pressure;BME280_temperature;BME280_humidity;BME280_pressure;Samples;Min_cycle;Max_cycle;Signal;HPM_P1;HPM_P2
2024/04/12 00:01:13;;;;;;;9.70;4.20;;;;;;;;;;5589025;25;20028;-60
2024/04/12 00:03:39;;;;;;;7.75;4.18;;;;;;;;;;5572256;25;20028;-61
2024/04/12 00:06:15;;;;;;;9.00;4.47;;;;;;;;;;5561001;25;20374;-61
2024/04/12 00:08:41;;;;;;;6.28;4.07;;;;;;;;;;5565364;25;20032;-61
2024/04/12 00:11:10;;;;;;;7.20;4.20;;;;;;;;;;5565717;25;20024;-60
2024/04/12 00:13:40;;;;;;;5.63;3.83;;;;;;;;;;5581682;25;20027;-63
2024/04/12 00:16:10;;;;;;;5.90;3.88;;;;;;;;;;5575552;25;20398;-61
2024/04/12 00:18:39;;;;;;;5.70;3.55;;;;;;;;;;5602725;25;20028;-61
2024/04/12 00:21:07;;;;;;;7.53;4.25;;;;;;;;;;5597561;25;20037;-61
2024/04/12 00:23:34;;;;;;;7.17;3.87;;;;;;;;;;5568002;25;20383;-60
2024/04/12 00:26:03;;;;;;;6.78;4.10;;;;;;;;;;5584448;25;20041;-61
2024/04/12 00:28:30;;;;;;;10.27;4.28;;;;;;;;;;5577171;25;20024;-62
2024/04/12 00:31:00;;;;;;;6.10;3.72;;;;;;;;;;5563757;25;20032;-61
2024/04/12 00:33:31;;;;;;;5.90;3.88;;;;;;;;;;5563765;25;20033;-61
2024/04/12 00:36:11;;;;;;;9.85;4.18;;;;;;;;;;5563037;25;20048;-60
2024/04/12 00:38:41;;;;;;;6.82;4.00;;;;;;;;;;5569697;25;20378;-60
2024/04/12 00:41:18;;;;;;;6.47;3.75;;;;;;;;;;5583672;25;20482;-60
2024/04/12 00:43:46;;;;;;;8.18;3.90;;;;;;;;;;5570741;25;20021;-60
2024/04/12 00:46:19;;;;;;;7.55;3.83;;;;;;;;;;5591830;25;20036;-60
2024/04/12 00:48:45;;;;;;;6.45;4.20;;;;;;;;;;5601764;25;20019;-61
2024/04/12 00:51:18;;;;;;;7.75;3.88;;;;;;;;;;5601776;25;20024;-61
2024/04/12 00:53:45;;;;;;;6.07;3.88;;;;;;;;;;5601578;25;20028;-61
2024/04/12 00:56:15;;;;;;;6.40;3.65;;;;;;;;;;5583985;25;20494;-61
2024/04/12 00:58:41;;;;;;;;;;;;;;;;;;5583015;25;20032;-61
2024/04/12 01:01:15;;;;;;;6.30;3.97;;;;;;;;;;5577457;25;19946;-60
2024/04/12 01:03:45;;;;;;;8.73;4.03;;;;;;;;;;5581022;25;20025;-60
2024/04/12 01:06:18;;;;;;;10.20;4.55;;;;;;;;;;5573987;25;20373;-60
2024/04/12 01:08:45;;;;;;;8.40;3.67;;;;;;;;;;5583386;25;20033;-60
2024/04/12 01:11:13;;;;;;;8.25;4.10;;;;;;;;;;5567910;25;20024;-60
2024/04/12 01:13:40;;;;;;;7.05;3.53;;;;;;;;;;5584681;25;20023;-60
2024/04/12 01:16:10;;;;;;;7.43;3.88;;;;;;;;;;5585384;25;20033;-60
2024/04/12 01:18:36;;;;;;;6.43;3.60;;;;;;;;;;5583259;25;20028;-60
2024/04/12 01:21:10;;;;;;;6.00;3.40;;;;;;;;;;5596680;25;20028;-61
2024/04/12 01:23:42;;;;;;;8.52;3.90;;;;;;;;;;5601776;25;20020;-60
2024/04/12 01:26:14;;;;;;;6.00;3.38;;;;;;;;;;5591205;25;20024;-61
2024/04/12 01:28:42;;;;;;;7.85;4.00;;;;;;;;;;5580967;25;20486;-60
2024/04/12 01:31:14;;;;;;;6.15;3.70;;;;;;;;;;5600720;25;20024;-61
2024/04/12 01:33:42;;;;;;;6.25;3.30;;;;;;;;;;5580876;25;20036;-60
2024/04/12 01:36:11;;;;;;;5.80;3.42;;;;;;;;;;5582897;25;20376;-59
2024/04/12 01:38:38;;;;;;;7.75;3.97;;;;;;;;;;5573991;25;20155;-61
2024/04/12 01:41:08;;;;;;;8.18;3.60;;;;;;;;;;5568101;25;20044;-60
2024/04/12 01:43:38;;;;;;;5.10;3.38;;;;;;;;;;5599744;25;20367;-60
2024/04/12 01:46:07;;;;;;;;;;;;;;;;;;5600792;25;20028;-61
2024/04/12 01:48:34;;;;;;;5.65;3.35;;;;;;;;;;5600903;25;19955;-60
2024/04/12 01:51:04;;;;;;;7.35;3.42;;;;;;;;;;5594178;25;20473;-60
2024/04/12 01:53:37;;;;;;;6.53;3.45;;;;;;;;;;5585965;25;20027;-61
2024/04/12 01:56:09;;;;;;;6.15;3.85;;;;;;;;;;5562174;25;20025;-60
2024/04/12 01:58:38;;;;;;;6.50;3.22;;;;;;;;;;5563375;25;20024;-61
2024/04/12 02:01:07;;;;;;;7.30;3.95;;;;;;;;;;5563833;25;20497;-59
2024/04/12 02:03:34;;;;;;;7.18;3.72;;;;;;;;;;5565404;25;20005;-60
2024/04/12 02:06:06;;;;;;;8.88;3.70;;;;;;;;;;5562156;25;20494;-61
2024/04/12 02:08:33;;;;;;;7.45;3.80;;;;;;;;;;5563084;25;20025;-61
2024/04/12 02:11:05;;;;;;;5.82;3.47;;;;;;;;;;5570333;25;20021;-60
2024/04/12 02:13:36;;;;;;;5.65;3.80;;;;;;;;;;5570070;25;20026;-61
2024/04/12 02:16:10;;;;;;;8.10;4.00;;;;;;;;;;5562593;25;20025;-61
2024/04/12 02:18:38;;;;;;;5.03;3.65;;;;;;;;;;5563240;25;20030;-61
2024/04/12 02:21:10;;;;;;;5.25;3.60;;;;;;;;;;5566057;25;20039;-61
2024/04/12 02:23:37;;;;;;;7.18;4.25;;;;;;;;;;5562339;25;20033;-60
2024/04/12 02:26:08;;;;;;;6.93;4.80;;;;;;;;;;5562483;25;20025;-61
2024/04/12 02:28:36;;;;;;;6.30;4.20;;;;;;;;;;5562478;25;20025;-61
2024/04/12 02:31:12;;;;;;;6.47;4.20;;;;;;;;;;5566502;25;20371;-60
2024/04/12 02:33:38;;;;;;;7.13;4.03;;;;;;;;;;5571067;25;20045;-59
2024/04/12 02:36:11;;;;;;;9.82;4.47;;;;;;;;;;5571409;25;20041;-60
2024/04/12 02:38:38;;;;;;;7.90;4.65;;;;;;;;;;5584533;25;20035;-59
2024/04/12 02:41:13;;;;;;;5.75;4.10;;;;;;;;;;5561775;25;20024;-61
2024/04/12 02:43:40;;;;;;;5.93;4.57;;;;;;;;;;5562908;25;20021;-60
2024/04/12 02:46:12;;;;;;;7.35;4.22;;;;;;;;;;5562651;25;20041;-61
2024/04/12 02:48:40;;;;;;;7.05;4.22;;;;;;;;;;5573751;25;20028;-61
2024/04/12 02:51:12;;;;;;;6.40;4.15;;;;;;;;;;5599714;25;20510;-61
2024/04/12 02:53:38;;;;;;;7.53;4.53;;;;;;;;;;5600290;25;20372;-60
2024/04/12 02:56:09;;;;;;;5.68;4.57;;;;;;;;;;5567770;25;20032;-62
2024/04/12 02:58:39;;;;;;;6.72;4.57;;;;;;;;;;5565655;25;20033;-62
2024/04/12 03:01:08;;;;;;;7.20;4.47;;;;;;;;;;5565539;25;20032;-60
2024/04/12 03:03:45;;;;;;;7.53;4.93;;;;;;;;;;5565691;25;20025;-61
2024/04/12 03:06:11;;;;;;;6.50;4.75;;;;;;;;;;5583511;25;20024;-60
2024/04/12 03:08:40;;;;;;;8.02;5.43;;;;;;;;;;5582535;25;20028;-60
2024/04/12 03:11:12;;;;;;;7.30;5.05;;;;;;;;;;5602976;25;20036;-60
2024/04/12 03:13:41;;;;;;;7.72;5.28;;;;;;;;;;5591230;25;20490;-60
2024/04/12 03:16:14;;;;;;;9.10;5.03;;;;;;;;;;5582921;25;20036;-60
2024/04/12 03:18:47;;;;;;;6.53;5.07;;;;;;;;;;5565587;25;20391;-60
2024/04/12 03:21:14;;;;;;;9.25;5.35;;;;;;;;;;5565121;25;20024;-60
2024/04/12 03:23:44;;;;;;;8.40;4.95;;;;;;;;;;5572449;25;20031;-60
2024/04/12 03:26:11;;;;;;;7.50;5.07;;;;;;;;;;5589318;25;20032;-60
2024/04/12 03:28:40;;;;;;;6.88;5.13;;;;;;;;;;5579072;25;20021;-60
2024/04/12 03:31:07;;;;;;;8.18;5.70;;;;;;;;;;5577900;25;20032;-60
2024/04/12 03:33:42;;;;;;;7.30;5.63;;;;;;;;;;5584135;25;20040;-61
2024/04/12 03:36:26;;;;;;;8.73;5.70;;;;;;;;;;5603830;25;20477;-60
2024/04/12 03:39:24;;;;;;;8.48;5.88;;;;;;;;;;5590344;25;20021;-61
2024/04/12 03:41:44;;;;;;;8.70;6.15;;;;;;;;;;5589732;25;20035;-60
2024/04/12 03:44:13;;;;;;;8.13;5.53;;;;;;;;;;5569055;25;20029;-61
2024/04/12 03:46:40;;;;;;;8.55;6.30;;;;;;;;;;5579878;25;20037;-61
2024/04/12 03:49:13;;;;;;;8.25;6.57;;;;;;;;;;5580157;25;20024;-61
2024/04/12 03:51:46;;;;;;;8.32;6.50;;;;;;;;;;5578422;25;20517;-61
2024/04/12 03:54:17;;;;;;;8.27;6.68;;;;;;;;;;5565189;25;20021;-61
2024/04/12 03:56:44;;;;;;;9.63;7.85;;;;;;;;;;5564362;25;20024;-61
2024/04/12 03:59:13;;;;;;;8.65;7.55;;;;;;;;;;5564523;25;20499;-61
2024/04/12 04:01:44;;;;;;;9.88;7.97;;;;;;;;;;5567274;25;20021;-61
2024/04/12 04:04:17;;;;;;;10.38;8.80;;;;;;;;;;5579647;25;20040;-61
2024/04/12 04:06:50;;;;;;;9.82;8.43;;;;;;;;;;5580656;25;20033;-61
2024/04/12 04:09:19;;;;;;;11.02;9.40;;;;;;;;;;5602933;25;20020;-62
2024/04/12 04:11:48;;;;;;;13.82;9.27;;;;;;;;;;5600371;25;20032;-61
2024/04/12 04:14:19;;;;;;;13.63;9.27;;;;;;;;;;5581866;25;20032;-61
2024/04/12 04:16:49;;;;;;;11.68;10.25;;;;;;;;;;5570253;25;20024;-61
2024/04/12 04:19:17;;;;;;;13.63;11.23;;;;;;;;;;5583786;25;20044;-62
2024/04/12 04:21:46;;;;;;;11.40;10.18;;;;;;;;;;5589895;25;20498;-61
2024/04/12 04:24:15;;;;;;;13.27;11.00;;;;;;;;;;5564728;25;20033;-61
2024/04/12 04:26:44;;;;;;;11.65;9.88;;;;;;;;;;5563628;25;20024;-62
2024/04/12 04:29:10;;;;;;;13.02;10.38;;;;;;;;;;5568687;25;20028;-61
2024/04/12 04:31:56;;;;;;;11.05;9.05;;;;;;;;;;5578231;25;20068;-63
2024/04/12 04:34:25;;;;;;;12.55;9.50;;;;;;;;;;5595773;25;20140;-61
2024/04/12 04:36:56;;;;;;;11.13;9.35;;;;;;;;;;5590834;25;20028;-62
2024/04/12 04:39:25;;;;;;;11.10;9.80;;;;;;;;;;5576541;25;20025;-61
2024/04/12 04:41:55;;;;;;;12.47;10.23;;;;;;;;;;5567773;25;20037;-61
2024/04/12 04:44:22;;;;;;;12.82;10.48;;;;;;;;;;5564482;25;20385;-61
2024/04/12 04:46:53;;;;;;;12.45;10.02;;;;;;;;;;5563487;25;20026;-62
2024/04/12 04:49:23;;;;;;;11.88;9.80;;;;;;;;;;5569168;25;20029;-62
2024/04/12 04:51:52;;;;;;;11.57;9.52;;;;;;;;;;5589231;25;20023;-62
2024/04/12 04:54:20;;;;;;;15.27;10.60;;;;;;;;;;5601687;25;20033;-61
2024/04/12 04:56:51;;;;;;;11.02;9.77;;;;;;;;;;5600722;25;20028;-61
2024/04/12 04:59:18;;;;;;;11.90;10.48;;;;;;;;;;5586737;25;20056;-61
2024/04/12 05:01:48;;;;;;;11.68;9.02;;;;;;;;;;5585079;25;20033;-61
2024/04/12 05:04:15;;;;;;;11.32;10.02;;;;;;;;;;5576615;25;20028;-61
2024/04/12 05:06:47;;;;;;;11.30;9.00;;;;;;;;;;5601144;25;20482;-62
2024/04/12 05:09:18;;;;;;;11.15;9.93;;;;;;;;;;5599598;25;20016;-61
2024/04/12 05:11:49;;;;;;;11.15;9.13;;;;;;;;;;5585415;25;20380;-61
2024/04/12 05:17:03;;;;;;;11.00;8.88;;;;;;;;;;5599786;25;20033;-61
2024/04/12 05:19:31;;;;;;;11.02;8.52;;;;;;;;;;5599618;25;20568;-62
2024/04/12 05:22:03;;;;;;;9.85;7.82;;;;;;;;;;5567912;25;20367;-61
2024/04/12 05:24:29;;;;;;;8.93;7.50;;;;;;;;;;5577233;25;20031;-62
2024/04/12 05:27:01;;;;;;;8.75;7.70;;;;;;;;;;5583163;25;20041;-62
2024/04/12 05:29:30;;;;;;;9.63;7.80;;;;;;;;;;5576625;25;20036;-61
2024/04/12 05:31:59;;;;;;;8.55;7.00;;;;;;;;;;5584009;25;20040;-60
2024/04/12 05:34:26;;;;;;;9.60;6.80;;;;;;;;;;5567786;25;20494;-60
2024/04/12 05:36:55;;;;;;;8.90;6.88;;;;;;;;;;5569468;25;20411;-61
2024/04/12 05:39:22;;;;;;;9.60;6.78;;;;;;;;;;5585273;25;20040;-60
2024/04/12 05:41:53;;;;;;;7.35;6.25;;;;;;;;;;5585678;25;20020;-61
2024/04/12 05:44:19;;;;;;;7.85;6.15;;;;;;;;;;5571783;25;20021;-61
2024/04/12 05:46:50;;;;;;;9.50;6.20;;;;;;;;;;5569674;25;20395;-61
2024/04/12 05:49:17;;;;;;;8.00;5.70;;;;;;;;;;5568457;25;20020;-61
2024/04/12 05:51:45;;;;;;;7.25;5.55;;;;;;;;;;5562363;25;20030;-61
2024/04/12 05:54:15;;;;;;;8.52;5.88;;;;;;;;;;5563741;25;20037;-62
2024/04/12 05:56:46;;;;;;;7.93;5.20;;;;;;;;;;5580343;25;20513;-62
2024/04/12 05:59:13;;;;;;;8.45;6.00;;;;;;;;;;5588461;25;20031;-61
2024/04/12 06:01:43;;;;;;;7.45;5.85;;;;;;;;;;5582352;25;20032;-62
2024/04/12 06:04:13;;;;;;;7.53;5.97;;;;;;;;;;5575553;25;20029;-62
2024/04/12 06:06:42;;;;;;;7.75;5.57;;;;;;;;;;5561684;25;20473;-61
2024/04/12 06:09:12;;;;;;;;;;;;;;;;;;5565534;25;20037;-61
2024/04/12 06:11:41;;;;;;;10.32;5.72;;;;;;;;;;5580872;25;19946;-62
2024/04/12 06:14:09;;;;;;;7.53;5.90;;;;;;;;;;5600750;25;20127;-62
2024/04/12 06:16:38;;;;;;;8.48;5.53;;;;;;;;;;5580625;25;20036;-62
2024/04/12 06:19:05;;;;;;;8.20;4.90;;;;;;;;;;5572994;25;20025;-65
2024/04/12 06:21:37;;;;;;;6.88;5.00;;;;;;;;;;5572535;25;20032;-62
2024/04/12 06:24:08;;;;;;;6.40;5.15;;;;;;;;;;5564290;25;20387;-61
2024/04/12 06:26:39;;;;;;;6.82;5.15;;;;;;;;;;5573268;25;20025;-63
2024/04/12 06:29:06;;;;;;;7.43;4.50;;;;;;;;;;5564867;25;20034;-62
2024/04/12 06:31:36;;;;;;;8.77;5.57;;;;;;;;;;5569278;25;20040;-61
2024/04/12 06:34:04;;;;;;;5.47;4.88;;;;;;;;;;5579173;25;20366;-61
2024/04/12 06:36:34;;;;;;;6.20;4.93;;;;;;;;;;5571694;25;20113;-63
2024/04/12 06:39:04;;;;;;;9.10;5.40;;;;;;;;;;5577073;25;20032;-59
2024/04/12 06:41:33;;;;;;;9.27;5.70;;;;;;;;;;5575057;25;20702;-61
2024/04/12 06:44:00;;;;;;;7.97;5.75;;;;;;;;;;5573018;25;20021;-61
2024/04/12 06:46:31;;;;;;;7.32;5.53;;;;;;;;;;5574673;25;20045;-60
2024/04/12 06:49:07;;;;;;;6.95;5.63;;;;;;;;;;5582116;25;20023;-61
2024/04/12 06:51:43;;;;;;;8.40;5.32;;;;;;;;;;5592537;25;20388;-60
2024/04/12 06:54:12;;;;;;;6.53;5.18;;;;;;;;;;5584830;25;20044;-60
2024/04/12 06:56:41;;;;;;;8.50;5.53;;;;;;;;;;5584694;25;20036;-60
2024/04/12 06:59:07;;;;;;;7.20;5.13;;;;;;;;;;5576073;25;20390;-62
2024/04/12 07:01:36;;;;;;;7.88;6.03;;;;;;;;;;5570338;25;20025;-60
2024/04/12 07:04:05;;;;;;;10.15;6.85;;;;;;;;;;5566976;25;20331;-61
2024/04/12 07:06:34;;;;;;;8.68;6.28;;;;;;;;;;5578896;25;20043;-61
2024/04/12 07:09:08;;;;;;;8.35;6.10;;;;;;;;;;5586772;25;20469;-61
2024/04/12 07:11:41;;;;;;;9.45;5.80;;;;;;;;;;5577276;25;20035;-61
2024/04/12 07:14:07;;;;;;;9.77;6.38;;;;;;;;;;5565637;25;20491;-59
2024/04/12 07:16:36;;;;;;;7.93;6.00;;;;;;;;;;5585965;25;20033;-60
2024/04/12 07:19:08;;;;;;;8.80;6.10;;;;;;;;;;5575280;25;20028;-61
2024/04/12 07:21:37;;;;;;;7.50;5.53;;;;;;;;;;5571665;25;20040;-59
2024/04/12 07:24:03;;;;;;;7.75;5.72;;;;;;;;;;5578309;25;20024;-60
2024/04/12 07:26:32;;;;;;;6.90;5.55;;;;;;;;;;5578306;25;20033;-61
2024/04/12 07:29:01;;;;;;;8.65;5.85;;;;;;;;;;5579049;25;20032;-62
2024/04/12 07:31:34;;;;;;;8.20;5.20;;;;;;;;;;5575118;25;20037;-60
2024/04/12 07:34:05;;;;;;;8.45;5.35;;;;;;;;;;5570398;25;20028;-60
2024/04/12 07:36:34;;;;;;;6.75;5.13;;;;;;;;;;5580175;25;20376;-59
2024/04/12 07:39:01;;;;;;;;;;;;;;;;;;5570758;25;20490;-62
2024/04/12 07:41:31;;;;;;;6.50;5.00;;;;;;;;;;5572229;25;19954;-63
2024/04/12 07:44:04;;;;;;;5.15;4.00;;;;;;;;;;5574802;25;20738;-63
2024/04/12 07:46:33;;;;;;;5.70;4.05;;;;;;;;;;5574022;25;20037;-60
2024/04/12 07:49:02;;;;;;;5.40;4.25;;;;;;;;;;5578631;25;20040;-61
2024/04/12 07:51:31;;;;;;;6.03;4.20;;;;;;;;;;5575584;25;20045;-62
2024/04/12 07:54:03;;;;;;;5.70;3.67;;;;;;;;;;5573484;25;20382;-63
2024/04/12 07:56:37;;;;;;;4.95;3.65;;;;;;;;;;5575385;25;20036;-62
2024/04/12 07:59:13;;;;;;;4.28;3.42;;;;;;;;;;5574988;25;20032;-63
2024/04/12 08:01:45;;;;;;;5.70;3.63;;;;;;;;;;5577634;25;20482;-63
2024/04/12 08:04:22;;;;;;;5.20;4.18;;;;;;;;;;5584367;25;20562;-61
2024/04/12 08:06:58;;;;;;;5.28;3.65;;;;;;;;;;5588424;25;20036;-63
2024/04/12 08:09:34;;;;;;;3.65;3.00;;;;;;;;;;5590854;25;20481;-62
2024/04/12 08:12:04;;;;;;;5.28;3.67;;;;;;;;;;5575813;25;20025;-63
2024/04/12 08:14:33;;;;;;;4.75;3.28;;;;;;;;;;5581901;25;20421;-62
2024/04/12 08:17:14;;;;;;;5.82;2.97;;;;;;;;;;5597255;25;20043;-62
2024/04/12 08:19:45;;;;;;;3.58;2.90;;;;;;;;;;5585800;25;20048;-63
2024/04/12 08:22:18;;;;;;;4.60;2.70;;;;;;;;;;5587084;25;20032;-62
2024/04/12 08:24:49;;;;;;;3.90;2.30;;;;;;;;;;5575079;25;20028;-62
2024/04/12 08:27:18;;;;;;;3.10;2.40;;;;;;;;;;5576553;25;20482;-62
2024/04/12 08:29:48;;;;;;;4.53;2.55;;;;;;;;;;5590604;25;20043;-62
2024/04/12 08:32:27;;;;;;;5.70;2.67;;;;;;;;;;5579544;25;20028;-60
2024/04/12 08:34:58;;;;;;;4.32;2.85;;;;;;;;;;5581232;25;20375;-62
2024/04/12 08:37:30;;;;;;;4.30;2.58;;;;;;;;;;5582741;25;20020;-62
2024/04/12 08:40:08;;;;;;;4.55;2.67;;;;;;;;;;5574767;25;20041;-60
2024/04/12 08:42:34;;;;;;;4.43;2.72;;;;;;;;;;5570799;25;20032;-61
2024/04/12 08:45:12;;;;;;;3.88;2.47;;;;;;;;;;5581988;25;20492;-60
2024/04/12 08:47:51;;;;;;;5.22;2.90;;;;;;;;;;5570274;25;20355;-62
2024/04/12 08:50:23;;;;;;;5.13;2.53;;;;;;;;;;5586296;25;20383;-62
2024/04/12 08:52:52;;;;;;;3.75;2.30;;;;;;;;;;5572028;25;20033;-62
2024/04/12 08:55:23;;;;;;;3.17;2.33;;;;;;;;;;5571390;25;20470;-62
2024/04/12 08:57:56;;;;;;;3.70;2.22;;;;;;;;;;5575612;25;20027;-62
2024/04/12 09:00:28;;;;;;;4.35;2.35;;;;;;;;;;5574035;25;20056;-62
2024/04/12 09:02:58;;;;;;;4.15;1.90;;;;;;;;;;5589028;25;20039;-63
2024/04/12 09:05:27;;;;;;;3.67;1.92;;;;;;;;;;5577449;25;20029;-63
2024/04/12 09:07:56;;;;;;;3.17;2.28;;;;;;;;;;5577296;25;20036;-62
2024/04/12 09:10:25;;;;;;;4.00;2.00;;;;;;;;;;5585332;25;20024;-62
2024/04/12 09:12:52;;;;;;;3.70;2.10;;;;;;;;;;5573295;25;20011;-62
2024/04/12 09:15:27;;;;;;;3.53;2.30;;;;;;;;;;5578742;25;20035;-62
2024/04/12 09:18:00;;;;;;;3.20;1.80;;;;;;;;;;5573760;25;20027;-61
2024/04/12 09:20:35;;;;;;;3.38;1.90;;;;;;;;;;5579653;25;20037;-62
2024/04/12 09:23:13;;;;;;;2.70;1.67;;;;;;;;;;5581155;25;20032;-63
2024/04/12 09:25:54;;;;;;;4.90;2.40;;;;;;;;;;5593143;25;20024;-62
2024/04/12 09:28:22;;;;;;;3.47;2.15;;;;;;;;;;5572452;25;20735;-62
2024/04/12 09:33:36;;;;;;;4.07;2.20;;;;;;;;;;5591715;25;20364;-63
2024/04/12 09:36:13;;;;;;;2.83;2.20;;;;;;;;;;5579185;25;20032;-62
2024/04/12 09:38:40;;;;;;;4.30;2.65;;;;;;;;;;5581632;25;20139;-63
2024/04/12 09:41:28;;;;;;;3.53;2.80;;;;;;;;;;5570801;25;20040;-63
2024/04/12 09:43:59;;;;;;;2.97;2.67;;;;;;;;;;5565441;25;20031;-63
2024/04/12 09:46:46;;;;;;;4.03;3.15;;;;;;;;;;5575663;25;20120;-63
2024/04/12 10:39:44;;;;;;;5.25;3.28;;;;;;;;;;5576163;25;20130;-63
2024/04/12 10:42:19;;;;;;;5.10;3.25;;;;;;;;;;5589557;25;20036;-63
2024/04/12 10:44:49;;;;;;;5.15;2.80;;;;;;;;;;5573790;25;20033;-62
2024/04/12 10:47:20;;;;;;;5.40;2.75;;;;;;;;;;5580537;25;20486;-62
2024/04/12 10:49:50;;;;;;;3.83;2.72;;;;;;;;;;5599406;25;20374;-62
2024/04/12 10:52:17;;;;;;;4.50;3.08;;;;;;;;;;5583915;25;20480;-63
2024/04/12 10:54:47;;;;;;;5.20;3.10;;;;;;;;;;5576448;25;20025;-63
2024/04/12 10:57:16;;;;;;;4.55;3.15;;;;;;;;;;5583271;25;20036;-62
2024/04/12 10:59:45;;;;;;;;;;;;;;;;;;5594021;25;20039;-62
2024/04/12 11:02:11;;;;;;;7.13;3.40;;;;;;;;;;5586590;25;19950;-62
2024/04/12 11:07:21;;;;;;;5.53;2.88;;;;;;;;;;5567673;25;20043;-63
2024/04/12 11:09:57;;;;;;;;;;;;;;;;;;5597012;25;20035;-62
2024/04/12 11:12:40;;;;;;;4.53;2.80;;;;;;;;;;5590858;25;20399;-63
2024/04/12 11:31:06;;;;;;;4.93;3.13;;;;;;;;;;5581870;25;20583;-60
2024/04/12 11:32:05;;;;;;;6.30;3.08;;;;;;;;;;5585091;25;20037;-62
2024/04/12 11:34:38;;;;;;;7.15;3.00;;;;;;;;;;5572503;25;20041;-64
2024/04/12 11:37:05;;;;;;;5.03;2.53;;;;;;;;;;5576766;25;20037;-63
2024/04/12 11:39:35;;;;;;;6.43;2.67;;;;;;;;;;5572397;25;20032;-63
2024/04/12 11:42:02;;;;;;;5.85;2.63;;;;;;;;;;5569099;25;20040;-64
2024/04/12 11:44:34;;;;;;;3.95;2.30;;;;;;;;;;5585630;25;20028;-63
2024/04/12 11:47:03;;;;;;;3.05;2.25;;;;;;;;;;5575897;25;20517;-67
2024/04/12 11:49:41;;;;;;;4.30;2.20;;;;;;;;;;5571269;25;20413;-62
2024/04/12 11:52:15;;;;;;;5.63;2.50;;;;;;;;;;5568990;25;20028;-64
2024/04/12 11:54:46;;;;;;;4.63;2.15;;;;;;;;;;5577182;25;20028;-64
2024/04/12 11:57:12;;;;;;;4.15;2.53;;;;;;;;;;5572219;25;20029;-63
2024/04/12 11:59:46;;;;;;;4.80;2.40;;;;;;;;;;5577561;25;20032;-64
2024/04/12 12:02:14;;;;;;;5.00;2.63;;;;;;;;;;5537428;25;20045;-63
2024/04/12 12:04:45;;;;;;;3.33;2.00;;;;;;;;;;5532572;25;20033;-62
2024/04/12 12:07:11;;;;;;;3.95;2.00;;;;;;;;;;5537510;25;20036;-64
2024/04/12 12:09:40;;;;;;;4.40;2.20;;;;;;;;;;5534391;25;20028;-64
2024/04/12 12:12:10;;;;;;;2.90;1.88;;;;;;;;;;5526061;25;20363;-64
2024/04/12 12:14:41;;;;;;;5.28;2.20;;;;;;;;;;5534476;25;20487;-63
2024/04/12 12:17:10;;;;;;;5.22;2.30;;;;;;;;;;5535673;25;20057;-63
2024/04/12 12:19:38;;;;;;;4.65;2.30;;;;;;;;;;5524484;25;20037;-60
2024/04/12 12:22:09;;;;;;;4.18;2.30;;;;;;;;;;5546128;25;20048;-62
2024/04/12 12:24:39;;;;;;;2.45;1.60;;;;;;;;;;5535064;25;20040;-62
2024/04/12 12:27:08;;;;;;;7.38;2.30;;;;;;;;;;5536306;25;20025;-61
2024/04/12 12:29:37;;;;;;;3.03;2.00;;;;;;;;;;5542052;25;20032;-62
2024/04/12 12:32:03;;;;;;;5.60;1.95;;;;;;;;;;5529465;25;20651;-63
2024/04/12 12:34:36;;;;;;;4.40;2.10;;;;;;;;;;5531908;25;20057;-64
2024/04/12 12:37:04;;;;;;;3.60;1.90;;;;;;;;;;5544273;25;20028;-62
2024/04/12 12:39:33;;;;;;;4.90;2.08;;;;;;;;;;5532061;25;20366;-62
2024/04/12 12:42:01;;;;;;;3.53;2.20;;;;;;;;;;5533267;25;20033;-62
2024/04/12 12:44:29;;;;;;;3.20;1.75;;;;;;;;;;5537284;25;20366;-64
2024/04/12 12:46:59;;;;;;;4.82;2.10;;;;;;;;;;5529851;25;20100;-62
2024/04/12 12:49:27;;;;;;;;;;;;;;;;;;5542667;25;20028;-62
2024/04/12 12:51:56;;;;;;;4.90;2.07;;;;;;;;;;5558979;25;20284;-64
2024/04/12 12:54:26;;;;;;;3.45;1.92;;;;;;;;;;5523780;25;20042;-63
2024/04/12 12:56:57;;;;;;;4.28;2.15;;;;;;;;;;5523752;25;20033;-63
2024/04/12 12:59:23;;;;;;;4.22;2.17;;;;;;;;;;5532082;25;20036;-63
2024/04/12 13:01:51;;;;;;;2.70;1.67;;;;;;;;;;5574248;25;20011;-63
2024/04/12 13:04:18;;;;;;;3.60;1.65;;;;;;;;;;5607566;25;20374;-63
2024/04/12 13:06:46;;;;;;;5.97;2.33;;;;;;;;;;5576983;25;20099;-63
2024/04/12 13:09:17;;;;;;;3.72;1.90;;;;;;;;;;5566783;25;20044;-63
2024/04/12 13:11:46;;;;;;;4.05;1.90;;;;;;;;;;5573646;25;20029;-63
2024/04/12 13:14:12;;;;;;;5.43;1.95;;;;;;;;;;5574834;25;20039;-63
2024/04/12 13:16:41;;;;;;;6.85;2.08;;;;;;;;;;5580493;25;20044;-62
2024/04/12 13:19:08;;;;;;;3.97;1.88;;;;;;;;;;5576014;25;20027;-62
2024/04/12 13:21:39;;;;;;;4.72;2.20;;;;;;;;;;5582581;25;20028;-62
2024/04/12 13:24:07;;;;;;;7.57;2.10;;;;;;;;;;5575418;25;20056;-62
2024/04/12 13:26:41;;;;;;;3.28;1.92;;;;;;;;;;5568730;25;20024;-63
2024/04/12 13:29:10;;;;;;;4.35;2.03;;;;;;;;;;5582317;25;20017;-64
2024/04/12 13:31:39;;;;;;;4.30;1.92;;;;;;;;;;5574062;25;20021;-63
2024/04/12 13:34:08;;;;;;;5.75;2.40;;;;;;;;;;5589489;25;20489;-63
2024/04/12 13:36:38;;;;;;;3.05;2.17;;;;;;;;;;5568770;25;20456;-63
2024/04/12 13:39:12;;;;;;;4.45;2.03;;;;;;;;;;5578057;25;20355;-64
2024/04/12 13:41:44;;;;;;;4.82;2.00;;;;;;;;;;5581582;25;20041;-64
2024/04/12 13:44:24;;;;;;;5.63;2.33;;;;;;;;;;5565723;25;20032;-61
2024/04/12 13:52:39;;;;;;;4.72;2.20;;;;;;;;;;5464280;26;20038;-61
2024/04/12 13:55:11;;;;;;;5.47;2.45;;;;;;;;;;5448822;26;20487;-61
2024/04/12 13:57:40;;;;;;;4.50;2.20;;;;;;;;;;5509534;25;20035;-61
2024/04/12 14:00:11;;;;;;;4.72;2.40;;;;;;;;;;5564134;25;20032;-61
2024/04/12 14:02:38;;;;;;;4.68;1.85;;;;;;;;;;5569134;25;20021;-61
2024/04/12 14:05:16;;;;;;;3.70;1.83;;;;;;;;;;5561771;25;20037;-61
2024/04/12 14:07:49;;;;;;;3.78;1.58;;;;;;;;;;5571139;25;20045;-60
2024/04/12 14:10:20;;;;;;;5.57;1.67;;;;;;;;;;5580497;25;20028;-61
2024/04/12 14:12:49;;;;;;;3.85;1.98;;;;;;;;;;5573461;25;20031;-62
2024/04/12 14:15:19;;;;;;;;;;;;;;;;;;5590232;25;20382;-60
2024/04/12 14:17:45;;;;;;;3.65;1.90;;;;;;;;;;5578693;25;19946;-60
2024/04/12 14:20:16;;;;;;;5.35;2.08;;;;;;;;;;5576868;25;20043;-60
2024/04/12 14:22:42;;;;;;;4.07;2.00;;;;;;;;;;5573419;25;20040;-62
2024/04/12 14:25:10;;;;;;;7.20;2.00;;;;;;;;;;5574341;25;20029;-60
2024/04/12 14:27:37;;;;;;;7.78;2.20;;;;;;;;;;5585594;25;20024;-62
2024/04/12 14:30:15;;;;;;;5.40;2.30;;;;;;;;;;5567820;25;20024;-59
2024/04/12 14:32:48;;;;;;;5.93;2.30;;;;;;;;;;5569866;25;20028;-60
2024/04/12 14:35:18;;;;;;;8.48;2.15;;;;;;;;;;5574518;25;20114;-61
2024/04/12 14:37:44;;;;;;;4.50;2.13;;;;;;;;;;5562433;25;20028;-62
2024/04/12 14:40:18;;;;;;;3.97;1.80;;;;;;;;;;5574001;25;20447;-62
2024/04/12 14:42:46;;;;;;;6.32;2.10;;;;;;;;;;5594425;25;20020;-61
2024/04/12 14:45:19;;;;;;;5.78;2.05;;;;;;;;;;5571446;25;20040;-62
2024/04/12 14:47:49;;;;;;;4.72;2.13;;;;;;;;;;5562127;25;20016;-62
2024/04/12 14:50:15;;;;;;;3.45;2.17;;;;;;;;;;5572287;25;20024;-61
2024/04/12 14:52:45;;;;;;;4.50;2.08;;;;;;;;;;5575801;25;20037;-61
2024/04/12 14:55:12;;;;;;;5.60;2.13;;;;;;;;;;5597224;25;20027;-61
2024/04/12 14:57:46;;;;;;;4.97;1.70;;;;;;;;;;5571392;25;20044;-61
2024/04/12 15:00:18;;;;;;;4.00;2.25;;;;;;;;;;5581715;25;20029;-62
2024/04/12 15:49:29;;;;;;;3.47;1.55;;;;;;;;;;5575871;25;20036;-63
2024/04/12 15:52:08;;;;;;;6.22;1.90;;;;;;;;;;5572831;25;20025;-62
2024/04/12 15:54:35;;;;;;;;;;;;;;;;;;5564963;25;20029;-62
2024/04/12 16:10:53;;;;;;;8.23;2.60;;;;;;;;;;5580473;25;20048;-60
2024/04/12 16:13:24;;;;;;;4.40;2.10;;;;;;;;;;5589644;25;20024;-61
2024/04/12 16:15:53;;;;;;;4.25;2.17;;;;;;;;;;5567322;25;20040;-63
2024/04/12 16:18:22;;;;;;;;;;;;;;;;;;5566252;25;20028;-63
2024/04/12 16:20:51;;;;;;;2.60;1.60;;;;;;;;;;5563444;25;19954;-62
2024/04/12 16:23:20;;;;;;;3.60;2.08;;;;;;;;;;5564555;25;20028;-62
2024/04/12 16:25:46;;;;;;;4.25;1.83;;;;;;;;;;5564124;25;20052;-63
2024/04/12 16:28:16;;;;;;;4.10;1.98;;;;;;;;;;5565755;25;20024;-63
2024/04/12 16:30:43;;;;;;;5.32;2.13;;;;;;;;;;5575766;25;20033;-62
2024/04/12 16:33:12;;;;;;;4.45;2.15;;;;;;;;;;5568639;25;20033;-63
2024/04/12 16:35:39;;;;;;;5.13;2.40;;;;;;;;;;5563651;25;20033;-63
2024/04/12 16:38:10;;;;;;;4.03;2.05;;;;;;;;;;5563644;25;20518;-62
2024/04/12 16:40:37;;;;;;;4.78;2.35;;;;;;;;;;5579239;25;20033;-63
2024/04/12 16:43:06;;;;;;;6.35;2.75;;;;;;;;;;5568704;25;20028;-62
2024/04/12 16:45:33;;;;;;;5.28;2.10;;;;;;;;;;5568428;25;20028;-63
2024/04/12 16:48:02;;;;;;;4.07;2.35;;;;;;;;;;5575037;25;20024;-63
2024/04/12 16:50:28;;;;;;;5.40;2.53;;;;;;;;;;5568542;25;20036;-62
2024/04/12 16:52:57;;;;;;;4.75;2.30;;;;;;;;;;5579137;25;20028;-62
2024/04/12 16:55:24;;;;;;;;;;;;;;;;;;5575777;25;20364;-62
2024/04/12 16:57:56;;;;;;;4.03;2.65;;;;;;;;;;5581702;25;19951;-62
2024/04/12 17:00:22;;;;;;;5.82;3.15;;;;;;;;;;5573413;25;20391;-62
2024/04/12 17:02:50;;;;;;;5.32;2.78;;;;;;;;;;5574898;25;20028;-63
2024/04/12 17:05:19;;;;;;;4.22;2.30;;;;;;;;;;5563182;25;20494;-64
2024/04/12 17:07:49;;;;;;;5.55;2.60;;;;;;;;;;5564182;25;20024;-63
2024/04/12 17:10:15;;;;;;;5.07;3.08;;;;;;;;;;5563655;25;20025;-63
2024/04/12 17:12:43;;;;;;;6.00;2.72;;;;;;;;;;5564986;25;20021;-62
2024/04/12 17:15:12;;;;;;;5.30;2.78;;;;;;;;;;5572195;25;20032;-62
2024/04/12 17:17:41;;;;;;;7.97;2.33;;;;;;;;;;5570294;25;20028;-61
2024/04/12 17:20:09;;;;;;;5.28;2.70;;;;;;;;;;5580049;25;20036;-62
2024/04/12 17:22:40;;;;;;;5.45;3.08;;;;;;;;;;5573094;25;20029;-62